sensor_id;sensor_type;location;lat;lon;timestamp;P1;durP1;ratioP1;P2;durP2;ratioP2
45806;SDS011;31507;51.494;7.518;2022-09-09T00:01:41;6.68;;;1.70;;
45806;SDS011;31507;51.494;7.518;2022-09-09T00:06:45;7.30;;;1.70;;
45806;SDS011;31507;51.494;7.518;2022-09-09T00:09:48;4.97;;;2.00;;
45806;SDS011;31507;51.494;7.518;2022-09-09T00:21:16;7.53;;;2.22;;
45806;SDS011;31507;51.494;7.518;2022-09-09T00:23:52;3.45;;;1.77;;
45806;SDS011;31507;51.494;7.518;2022-09-09T00:29:14;5.00;;;1.77;;
45806;SDS011;31507;51.494;7.518;2022-09-09T00:31:55;3.58;;;1.83;;
45806;SDS011;31507;51.494;7.518;2022-09-09T00:34:24;4.70;;;1.88;;
45806;SDS011;31507;51.494;7.518;2022-09-09T00:36:52;7.47;;;2.17;;
45806;SDS011;31507;51.494;7.518;2022-09-09T00:39:27;4.03;;;2.13;;
45806;SDS011;31507;51.494;7.518;2022-09-09T00:42:34;9.80;;;1.90;;
45806;SDS011;31507;51.494;7.518;2022-09-09T00:52:54;3.50;;;2.08;;
45806;SDS011;31507;51.494;7.518;2022-09-09T00:57:57;6.57;;;2.70;;
45806;SDS011;31507;51.494;7.518;2022-09-09T01:00:35;8.18;;;2.90;;
45806;SDS011;31507;51.494;7.518;2022-09-09T01:09:02;13.63;;;3.70;;
45806;SDS011;31507;51.494;7.518;2022-09-09T01:17:14;9.70;;;3.85;;
45806;SDS011;31507;51.494;7.518;2022-09-09T01:19:59;12.48;;;3.80;;
45806;SDS011;31507;51.494;7.518;2022-09-09T01:23:11;11.02;;;4.53;;
45806;SDS011;31507;51.494;7.518;2022-09-09T01:28:37;13.02;;;4.78;;
45806;SDS011;31507;51.494;7.518;2022-09-09T01:31:04;9.48;;;4.53;;
45806;SDS011;31507;51.494;7.518;2022-09-09T01:33:33;11.73;;;5.28;;
45806;SDS011;31507;51.494;7.518;2022-09-09T01:38:40;10.90;;;4.88;;
45806;SDS011;31507;51.494;7.518;2022-09-09T01:41:06;17.25;;;5.30;;
45806;SDS011;31507;51.494;7.518;2022-09-09T01:43:32;12.13;;;5.05;;
45806;SDS011;31507;51.494;7.518;2022-09-09T01:45:58;11.40;;;5.00;;
45806;SDS011;31507;51.494;7.518;2022-09-09T01:48:26;13.45;;;4.85;;
45806;SDS011;31507;51.494;7.518;2022-09-09T01:50:53;13.15;;;4.75;;
45806;SDS011;31507;51.494;7.518;2022-09-09T01:53:19;12.40;;;4.90;;
45806;SDS011;31507;51.494;7.518;2022-09-09T01:56:07;16.42;;;5.70;;
45806;SDS011;31507;51.494;7.518;2022-09-09T01:58:53;16.73;;;4.60;;
45806;SDS011;31507;51.494;7.518;2022-09-09T02:01:36;11.27;;;4.72;;
45806;SDS011;31507;51.494;7.518;2022-09-09T02:04:08;12.40;;;4.70;;
45806;SDS011;31507;51.494;7.518;2022-09-09T02:07:05;11.10;;;4.50;;
45806;SDS011;31507;51.494;7.518;2022-09-09T02:09:48;11.68;;;4.38;;
45806;SDS011;31507;51.494;7.518;2022-09-09T02:12:17;14.60;;;4.80;;
45806;SDS011;31507;51.494;7.518;2022-09-09T02:14:49;9.52;;;4.18;;
45806;SDS011;31507;51.494;7.518;2022-09-09T02:17:22;11.45;;;4.75;;
45806;SDS011;31507;51.494;7.518;2022-09-09T02:20:02;7.35;;;3.90;;
45806;SDS011;31507;51.494;7.518;2022-09-09T02:22:33;12.20;;;3.90;;
45806;SDS011;31507;51.494;7.518;2022-09-09T02:25:05;16.88;;;4.07;;
45806;SDS011;31507;51.494;7.518;2022-09-09T02:27:33;11.27;;;3.67;;
45806;SDS011;31507;51.494;7.518;2022-09-09T02:29:59;8.95;;;3.30;;
45806;SDS011;31507;51.494;7.518;2022-09-09T02:32:27;11.10;;;3.22;;
45806;SDS011;31507;51.494;7.518;2022-09-09T02:34:57;13.30;;;3.28;;
45806;SDS011;31507;51.494;7.518;2022-09-09T02:37:39;10.70;;;2.50;;
45806;SDS011;31507;51.494;7.518;2022-09-09T02:40:07;11.55;;;2.85;;
45806;SDS011;31507;51.494;7.518;2022-09-09T02:42:42;8.68;;;2.45;;
45806;SDS011;31507;51.494;7.518;2022-09-09T02:45:10;10.18;;;2.80;;
45806;SDS011;31507;51.494;7.518;2022-09-09T02:47:41;8.07;;;2.40;;
45806;SDS011;31507;51.494;7.518;2022-09-09T02:50:12;7.65;;;2.92;;
45806;SDS011;31507;51.494;7.518;2022-09-09T02:57:57;7.45;;;2.45;;
45806;SDS011;31507;51.494;7.518;2022-09-09T03:00:25;9.07;;;2.20;;
45806;SDS011;31507;51.494;7.518;2022-09-09T03:02:52;7.30;;;2.80;;
45806;SDS011;31507;51.494;7.518;2022-09-09T03:05:19;10.80;;;2.63;;
45806;SDS011;31507;51.494;7.518;2022-09-09T03:07:45;9.07;;;2.33;;
45806;SDS011;31507;51.494;7.518;2022-09-09T03:10:11;10.57;;;3.00;;
45806;SDS011;31507;51.494;7.518;2022-09-09T03:12:38;7.93;;;2.70;;
45806;SDS011;31507;51.494;7.518;2022-09-09T03:15:04;12.88;;;2.50;;
45806;SDS011;31507;51.494;7.518;2022-09-09T03:17:31;6.18;;;2.08;;
45806;SDS011;31507;51.494;7.518;2022-09-09T03:19:57;10.68;;;2.30;;
45806;SDS011;31507;51.494;7.518;2022-09-09T03:22:23;6.88;;;1.90;;
45806;SDS011;31507;51.494;7.518;2022-09-09T03:24:50;8.02;;;2.55;;
45806;SDS011;31507;51.494;7.518;2022-09-09T03:27:16;8.02;;;2.10;;
45806;SDS011;31507;51.494;7.518;2022-09-09T03:29:42;9.23;;;2.33;;
45806;SDS011;31507;51.494;7.518;2022-09-09T03:32:08;7.90;;;2.17;;
45806;SDS011;31507;51.494;7.518;2022-09-09T03:34:39;5.80;;;2.10;;
45806;SDS011;31507;51.494;7.518;2022-09-09T03:37:09;8.85;;;2.17;;
45806;SDS011;31507;51.494;7.518;2022-09-09T03:39:35;5.80;;;1.98;;
45806;SDS011;31507;51.494;7.518;2022-09-09T03:42:01;5.28;;;1.58;;
45806;SDS011;31507;51.494;7.518;2022-09-09T03:44:30;11.30;;;2.50;;
45806;SDS011;31507;51.494;7.518;2022-09-09T03:46:56;11.65;;;2.25;;
45806;SDS011;31507;51.494;7.518;2022-09-09T03:49:22;7.32;;;1.83;;
45806;SDS011;31507;51.494;7.518;2022-09-09T03:51:49;5.05;;;1.95;;
45806;SDS011;31507;51.494;7.518;2022-09-09T03:54:14;6.70;;;1.92;;
45806;SDS011;31507;51.494;7.518;2022-09-09T03:56:40;6.80;;;1.90;;
45806;SDS011;31507;51.494;7.518;2022-09-09T03:59:06;9.07;;;2.42;;
45806;SDS011;31507;51.494;7.518;2022-09-09T04:01:33;8.32;;;2.22;;
45806;SDS011;31507;51.494;7.518;2022-09-09T04:03:59;7.75;;;2.08;;
45806;SDS011;31507;51.494;7.518;2022-09-09T04:06:27;11.55;;;2.35;;
45806;SDS011;31507;51.494;7.518;2022-09-09T04:08:54;9.18;;;2.20;;
45806;SDS011;31507;51.494;7.518;2022-09-09T04:11:20;11.73;;;2.13;;
45806;SDS011;31507;51.494;7.518;2022-09-09T04:13:47;7.82;;;2.63;;
45806;SDS011;31507;51.494;7.518;2022-09-09T04:16:13;8.25;;;2.33;;
45806;SDS011;31507;51.494;7.518;2022-09-09T04:18:39;7.90;;;2.40;;
45806;SDS011;31507;51.494;7.518;2022-09-09T04:21:05;8.15;;;2.50;;
45806;SDS011;31507;51.494;7.518;2022-09-09T04:23:32;11.93;;;3.25;;
45806;SDS011;31507;51.494;7.518;2022-09-09T04:25:59;8.05;;;2.60;;
45806;SDS011;31507;51.494;7.518;2022-09-09T04:28:27;9.65;;;3.22;;
45806;SDS011;31507;51.494;7.518;2022-09-09T04:30:54;11.02;;;2.90;;
45806;SDS011;31507;51.494;7.518;2022-09-09T04:33:20;14.93;;;3.08;;
45806;SDS011;31507;51.494;7.518;2022-09-09T04:35:46;9.00;;;3.05;;
45806;SDS011;31507;51.494;7.518;2022-09-09T04:38:13;7.15;;;2.85;;
45806;SDS011;31507;51.494;7.518;2022-09-09T04:40:41;7.38;;;2.58;;
45806;SDS011;31507;51.494;7.518;2022-09-09T04:43:14;13.82;;;2.60;;
45806;SDS011;31507;51.494;7.518;2022-09-09T04:45:40;8.10;;;2.80;;
45806;SDS011;31507;51.494;7.518;2022-09-09T04:48:07;8.02;;;2.50;;
45806;SDS011;31507;51.494;7.518;2022-09-09T04:50:34;13.77;;;3.03;;
45806;SDS011;31507;51.494;7.518;2022-09-09T04:53:04;9.50;;;2.97;;
45806;SDS011;31507;51.494;7.518;2022-09-09T04:55:30;12.23;;;2.70;;
45806;SDS011;31507;51.494;7.518;2022-09-09T04:57:56;6.07;;;2.20;;
45806;SDS011;31507;51.494;7.518;2022-09-09T05:00:25;11.80;;;2.53;;
45806;SDS011;31507;51.494;7.518;2022-09-09T05:02:50;11.25;;;2.42;;
45806;SDS011;31507;51.494;7.518;2022-09-09T05:05:16;15.40;;;3.10;;
45806;SDS011;31507;51.494;7.518;2022-09-09T05:07:43;7.22;;;2.22;;
45806;SDS011;31507;51.494;7.518;2022-09-09T05:10:09;8.75;;;2.20;;
45806;SDS011;31507;51.494;7.518;2022-09-09T05:12:35;10.75;;;2.55;;
45806;SDS011;31507;51.494;7.518;2022-09-09T05:15:01;9.13;;;2.10;;
45806;SDS011;31507;51.494;7.518;2022-09-09T05:17:26;12.60;;;2.47;;
45806;SDS011;31507;51.494;7.518;2022-09-09T05:19:52;8.48;;;2.08;;
45806;SDS011;31507;51.494;7.518;2022-09-09T05:22:19;9.13;;;2.03;;
45806;SDS011;31507;51.494;7.518;2022-09-09T05:24:48;8.93;;;2.47;;
45806;SDS011;31507;51.494;7.518;2022-09-09T05:27:16;7.22;;;2.17;;
45806;SDS011;31507;51.494;7.518;2022-09-09T05:29:44;8.85;;;2.17;;
45806;SDS011;31507;51.494;7.518;2022-09-09T05:32:10;10.98;;;2.30;;
45806;SDS011;31507;51.494;7.518;2022-09-09T05:34:35;5.88;;;2.63;;
45806;SDS011;31507;51.494;7.518;2022-09-09T05:37:02;3.92;;;2.28;;
45806;SDS011;31507;51.494;7.518;2022-09-09T05:39:29;15.63;;;2.95;;
45806;SDS011;31507;51.494;7.518;2022-09-09T05:41:54;8.40;;;1.70;;
45806;SDS011;31507;51.494;7.518;2022-09-09T05:44:20;9.90;;;2.40;;
45806;SDS011;31507;51.494;7.518;2022-09-09T05:46:48;8.05;;;2.38;;
45806;SDS011;31507;51.494;7.518;2022-09-09T05:49:14;8.63;;;1.95;;
45806;SDS011;31507;51.494;7.518;2022-09-09T05:51:40;7.63;;;2.22;;
45806;SDS011;31507;51.494;7.518;2022-09-09T05:54:07;10.70;;;2.60;;
45806;SDS011;31507;51.494;7.518;2022-09-09T05:56:33;7.57;;;2.13;;
45806;SDS011;31507;51.494;7.518;2022-09-09T05:58:59;8.23;;;2.08;;
45806;SDS011;31507;51.494;7.518;2022-09-09T06:01:29;9.45;;;2.25;;
45806;SDS011;31507;51.494;7.518;2022-09-09T06:03:56;11.82;;;2.40;;
45806;SDS011;31507;51.494;7.518;2022-09-09T06:06:23;9.30;;;2.15;;
45806;SDS011;31507;51.494;7.518;2022-09-09T06:08:55;9.35;;;2.13;;
45806;SDS011;31507;51.494;7.518;2022-09-09T06:11:30;6.13;;;1.60;;
45806;SDS011;31507;51.494;7.518;2022-09-09T06:13:56;7.53;;;2.15;;
45806;SDS011;31507;51.494;7.518;2022-09-09T06:16:23;8.48;;;1.60;;
45806;SDS011;31507;51.494;7.518;2022-09-09T06:18:51;10.98;;;1.83;;
45806;SDS011;31507;51.494;7.518;2022-09-09T06:21:23;7.20;;;1.98;;
45806;SDS011;31507;51.494;7.518;2022-09-09T06:23:50;7.95;;;1.42;;
45806;SDS011;31507;51.494;7.518;2022-09-09T06:26:22;8.52;;;1.98;;
45806;SDS011;31507;51.494;7.518;2022-09-09T06:28:51;8.88;;;1.98;;
45806;SDS011;31507;51.494;7.518;2022-09-09T06:31:19;7.75;;;1.75;;
45806;SDS011;31507;51.494;7.518;2022-09-09T06:33:49;4.80;;;1.42;;
45806;SDS011;31507;51.494;7.518;2022-09-09T06:36:21;8.18;;;1.88;;
45806;SDS011;31507;51.494;7.518;2022-09-09T06:38:48;5.63;;;1.50;;
45806;SDS011;31507;51.494;7.518;2022-09-09T06:41:15;11.43;;;2.22;;
45806;SDS011;31507;51.494;7.518;2022-09-09T06:43:43;9.45;;;1.45;;
45806;SDS011;31507;51.494;7.518;2022-09-09T06:48:39;8.68;;;1.48;;
45806;SDS011;31507;51.494;7.518;2022-09-09T06:53:34;5.35;;;1.60;;
45806;SDS011;31507;51.494;7.518;2022-09-09T06:56:13;9.93;;;1.75;;
45806;SDS011;31507;51.494;7.518;2022-09-09T06:58:48;12.40;;;1.30;;
45806;SDS011;31507;51.494;7.518;2022-09-09T07:01:18;8.00;;;1.80;;
45806;SDS011;31507;51.494;7.518;2022-09-09T07:03:48;7.95;;;1.80;;
45806;SDS011;31507;51.494;7.518;2022-09-09T07:06:22;6.30;;;1.48;;
45806;SDS011;31507;51.494;7.518;2022-09-09T07:08:53;6.55;;;1.23;;
45806;SDS011;31507;51.494;7.518;2022-09-09T07:11:21;8.88;;;1.80;;
45806;SDS011;31507;51.494;7.518;2022-09-09T07:13:48;6.28;;;1.30;;
45806;SDS011;31507;51.494;7.518;2022-09-09T07:16:15;6.10;;;1.45;;
45806;SDS011;31507;51.494;7.518;2022-09-09T07:18:42;6.95;;;1.50;;
45806;SDS011;31507;51.494;7.518;2022-09-09T07:21:10;8.00;;;1.52;;
45806;SDS011;31507;51.494;7.518;2022-09-09T07:23:37;7.10;;;1.30;;
45806;SDS011;31507;51.494;7.518;2022-09-09T07:26:07;6.93;;;1.02;;
45806;SDS011;31507;51.494;7.518;2022-09-09T07:28:34;4.28;;;0.90;;
45806;SDS011;31507;51.494;7.518;2022-09-09T07:31:01;12.10;;;1.65;;
45806;SDS011;31507;51.494;7.518;2022-09-09T07:33:27;4.57;;;1.15;;
45806;SDS011;31507;51.494;7.518;2022-09-09T07:36:05;4.20;;;1.00;;
45806;SDS011;31507;51.494;7.518;2022-09-09T07:38:46;6.70;;;1.35;;
45806;SDS011;31507;51.494;7.518;2022-09-09T07:41:15;5.50;;;1.50;;
45806;SDS011;31507;51.494;7.518;2022-09-09T07:43:43;6.50;;;1.13;;
45806;SDS011;31507;51.494;7.518;2022-09-09T07:46:11;13.38;;;2.00;;
45806;SDS011;31507;51.494;7.518;2022-09-09T07:48:38;4.70;;;1.40;;
45806;SDS011;31507;51.494;7.518;2022-09-09T07:51:19;6.18;;;1.63;;
45806;SDS011;31507;51.494;7.518;2022-09-09T07:53:57;4.30;;;1.42;;
45806;SDS011;31507;51.494;7.518;2022-09-09T07:56:24;6.28;;;1.40;;
45806;SDS011;31507;51.494;7.518;2022-09-09T07:58:52;6.43;;;1.67;;
45806;SDS011;31507;51.494;7.518;2022-09-09T08:01:23;8.32;;;1.40;;
45806;SDS011;31507;51.494;7.518;2022-09-09T08:03:59;5.20;;;1.33;;
45806;SDS011;31507;51.494;7.518;2022-09-09T08:06:27;5.32;;;1.73;;
45806;SDS011;31507;51.494;7.518;2022-09-09T08:08:54;11.13;;;2.03;;
45806;SDS011;31507;51.494;7.518;2022-09-09T08:11:21;4.22;;;1.30;;
45806;SDS011;31507;51.494;7.518;2022-09-09T08:13:48;4.43;;;1.52;;
45806;SDS011;31507;51.494;7.518;2022-09-09T08:16:17;5.55;;;1.80;;
45806;SDS011;31507;51.494;7.518;2022-09-09T08:18:49;5.63;;;1.23;;
45806;SDS011;31507;51.494;7.518;2022-09-09T08:21:21;5.70;;;1.52;;
45806;SDS011;31507;51.494;7.518;2022-09-09T08:23:49;4.70;;;1.40;;
45806;SDS011;31507;51.494;7.518;2022-09-09T08:26:18;7.90;;;1.42;;
45806;SDS011;31507;51.494;7.518;2022-09-09T08:28:52;2.38;;;1.10;;
45806;SDS011;31507;51.494;7.518;2022-09-09T08:31:19;5.63;;;1.50;;
45806;SDS011;31507;51.494;7.518;2022-09-09T08:33:47;6.65;;;1.10;;
45806;SDS011;31507;51.494;7.518;2022-09-09T08:36:18;6.90;;;1.60;;
45806;SDS011;31507;51.494;7.518;2022-09-09T08:41:26;6.05;;;1.55;;
45806;SDS011;31507;51.494;7.518;2022-09-09T08:44:14;6.50;;;1.73;;
45806;SDS011;31507;51.494;7.518;2022-09-09T08:53:20;4.05;;;1.20;;
45806;SDS011;31507;51.494;7.518;2022-09-09T08:55:46;8.98;;;1.38;;
45806;SDS011;31507;51.494;7.518;2022-09-09T08:58:16;4.18;;;1.15;;
45806;SDS011;31507;51.494;7.518;2022-09-09T09:12:02;13.93;;;1.38;;
45806;SDS011;31507;51.494;7.518;2022-09-09T09:14:43;7.72;;;1.42;;
45806;SDS011;31507;51.494;7.518;2022-09-09T09:17:12;6.15;;;1.20;;
45806;SDS011;31507;51.494;7.518;2022-09-09T09:19:41;5.63;;;1.50;;
45806;SDS011;31507;51.494;7.518;2022-09-09T09:22:21;5.72;;;1.42;;
45806;SDS011;31507;51.494;7.518;2022-09-09T09:27:38;5.90;;;1.52;;
45806;SDS011;31507;51.494;7.518;2022-09-09T09:30:19;6.00;;;1.77;;
45806;SDS011;31507;51.494;7.518;2022-09-09T09:35:21;6.22;;;1.48;;
45806;SDS011;31507;51.494;7.518;2022-09-09T09:37:47;6.10;;;1.83;;
45806;SDS011;31507;51.494;7.518;2022-09-09T09:40:17;2.63;;;1.30;;
45806;SDS011;31507;51.494;7.518;2022-09-09T09:42:52;4.50;;;1.40;;
45806;SDS011;31507;51.494;7.518;2022-09-09T09:45:25;5.40;;;1.23;;
45806;SDS011;31507;51.494;7.518;2022-09-09T09:50:27;10.32;;;1.42;;
45806;SDS011;31507;51.494;7.518;2022-09-09T09:52:57;6.38;;;1.52;;
45806;SDS011;31507;51.494;7.518;2022-09-09T09:55:25;3.35;;;1.20;;
45806;SDS011;31507;51.494;7.518;2022-09-09T09:57:52;6.07;;;1.42;;
45806;SDS011;31507;51.494;7.518;2022-09-09T10:02:46;9.25;;;1.75;;
45806;SDS011;31507;51.494;7.518;2022-09-09T10:05:23;5.95;;;1.40;;
45806;SDS011;31507;51.494;7.518;2022-09-09T10:18:59;6.28;;;1.48;;
45806;SDS011;31507;51.494;7.518;2022-09-09T10:24:22;8.93;;;1.60;;
45806;SDS011;31507;51.494;7.518;2022-09-09T10:27:20;7.43;;;1.35;;
45806;SDS011;31507;51.494;7.518;2022-09-09T10:35:43;4.82;;;1.17;;
45806;SDS011;31507;51.494;7.518;2022-09-09T10:38:25;8.52;;;1.52;;
45806;SDS011;31507;51.494;7.518;2022-09-09T10:41:01;8.10;;;1.35;;
45806;SDS011;31507;51.494;7.518;2022-09-09T10:54:56;4.22;;;1.05;;
45806;SDS011;31507;51.494;7.518;2022-09-09T10:57:39;5.32;;;1.50;;
45806;SDS011;31507;51.494;7.518;2022-09-09T11:00:22;4.55;;;1.17;;
45806;SDS011;31507;51.494;7.518;2022-09-09T11:02:56;3.85;;;0.88;;
45806;SDS011;31507;51.494;7.518;2022-09-09T11:08:20;4.53;;;1.02;;
45806;SDS011;31507;51.494;7.518;2022-09-09T11:11:02;4.05;;;1.10;;
45806;SDS011;31507;51.494;7.518;2022-09-09T11:13:47;3.85;;;1.10;;
45806;SDS011;31507;51.494;7.518;2022-09-09T11:18:50;7.40;;;1.23;;
45806;SDS011;31507;51.494;7.518;2022-09-09T11:24:03;3.35;;;1.00;;
45806;SDS011;31507;51.494;7.518;2022-09-09T11:26:37;6.13;;;1.25;;
45806;SDS011;31507;51.494;7.518;2022-09-09T11:40:27;2.90;;;0.80;;
45806;SDS011;31507;51.494;7.518;2022-09-09T11:45:51;2.28;;;1.08;;
45806;SDS011;31507;51.494;7.518;2022-09-09T11:51:02;9.32;;;1.20;;
45806;SDS011;31507;51.494;7.518;2022-09-09T11:53:36;4.68;;;0.90;;
45806;SDS011;31507;51.494;7.518;2022-09-09T12:01:29;5.40;;;1.15;;
45806;SDS011;31507;51.494;7.518;2022-09-09T12:06:44;8.20;;;0.90;;
45806;SDS011;31507;51.494;7.518;2022-09-09T12:09:32;5.65;;;0.85;;
45806;SDS011;31507;51.494;7.518;2022-09-09T12:17:20;3.10;;;1.00;;
45806;SDS011;31507;51.494;7.518;2022-09-09T12:20:00;3.55;;;1.00;;
45806;SDS011;31507;51.494;7.518;2022-09-09T12:23:17;6.47;;;1.00;;
45806;SDS011;31507;51.494;7.518;2022-09-09T12:28:45;3.00;;;1.05;;
45806;SDS011;31507;51.494;7.518;2022-09-09T12:37:34;2.47;;;0.80;;
45806;SDS011;31507;51.494;7.518;2022-09-09T12:42:30;2.88;;;0.98;;
45806;SDS011;31507;51.494;7.518;2022-09-09T12:44:59;3.63;;;1.13;;
45806;SDS011;31507;51.494;7.518;2022-09-09T12:49:55;8.95;;;1.10;;
45806;SDS011;31507;51.494;7.518;2022-09-09T12:55:24;3.25;;;1.00;;
45806;SDS011;31507;51.494;7.518;2022-09-09T12:57:55;5.93;;;1.00;;
45806;SDS011;31507;51.494;7.518;2022-09-09T13:00:23;6.03;;;1.35;;
45806;SDS011;31507;51.494;7.518;2022-09-09T13:02:51;3.28;;;0.90;;
45806;SDS011;31507;51.494;7.518;2022-09-09T13:05:19;6.93;;;1.40;;
45806;SDS011;31507;51.494;7.518;2022-09-09T13:08:05;3.15;;;0.77;;
45806;SDS011;31507;51.494;7.518;2022-09-09T13:10:34;4.50;;;1.02;;
45806;SDS011;31507;51.494;7.518;2022-09-09T13:13:03;5.05;;;1.10;;
45806;SDS011;31507;51.494;7.518;2022-09-09T13:15:38;6.50;;;1.15;;
45806;SDS011;31507;51.494;7.518;2022-09-09T13:18:05;3.63;;;0.95;;
45806;SDS011;31507;51.494;7.518;2022-09-09T13:20:36;5.65;;;1.20;;
45806;SDS011;31507;51.494;7.518;2022-09-09T13:23:02;2.67;;;1.15;;
45806;SDS011;31507;51.494;7.518;2022-09-09T13:25:28;4.82;;;1.00;;
45806;SDS011;31507;51.494;7.518;2022-09-09T13:27:59;5.90;;;1.30;;
45806;SDS011;31507;51.494;7.518;2022-09-09T13:30:31;5.70;;;1.02;;
45806;SDS011;31507;51.494;7.518;2022-09-09T13:33:06;6.68;;;1.48;;
45806;SDS011;31507;51.494;7.518;2022-09-09T13:35:54;3.08;;;1.23;;
45806;SDS011;31507;51.494;7.518;2022-09-09T13:38:22;5.60;;;1.10;;
45806;SDS011;31507;51.494;7.518;2022-09-09T13:41:08;1.92;;;1.00;;
45806;SDS011;31507;51.494;7.518;2022-09-09T13:43:42;3.45;;;1.40;;
45806;SDS011;31507;51.494;7.518;2022-09-09T13:49:01;7.35;;;1.35;;
45806;SDS011;31507;51.494;7.518;2022-09-09T13:51:41;5.55;;;1.30;;
45806;SDS011;31507;51.494;7.518;2022-09-09T13:54:12;4.28;;;1.30;;
45806;SDS011;31507;51.494;7.518;2022-09-09T13:56:40;5.50;;;0.95;;
45806;SDS011;31507;51.494;7.518;2022-09-09T13:59:11;2.80;;;0.90;;
45806;SDS011;31507;51.494;7.518;2022-09-09T14:01:38;3.88;;;1.48;;
45806;SDS011;31507;51.494;7.518;2022-09-09T14:04:04;3.97;;;1.23;;
45806;SDS011;31507;51.494;7.518;2022-09-09T14:06:31;8.45;;;1.75;;
45806;SDS011;31507;51.494;7.518;2022-09-09T14:08:58;3.65;;;0.90;;
45806;SDS011;31507;51.494;7.518;2022-09-09T14:11:24;5.45;;;1.05;;
45806;SDS011;31507;51.494;7.518;2022-09-09T14:13:50;2.20;;;0.82;;
45806;SDS011;31507;51.494;7.518;2022-09-09T14:16:18;6.25;;;1.02;;
45806;SDS011;31507;51.494;7.518;2022-09-09T14:18:45;4.03;;;1.20;;
45806;SDS011;31507;51.494;7.518;2022-09-09T14:21:11;5.20;;;1.17;;
45806;SDS011;31507;51.494;7.518;2022-09-09T14:23:37;2.85;;;0.90;;
45806;SDS011;31507;51.494;7.518;2022-09-09T14:26:03;3.97;;;1.00;;
45806;SDS011;31507;51.494;7.518;2022-09-09T14:28:30;4.32;;;1.40;;
45806;SDS011;31507;51.494;7.518;2022-09-09T14:30:58;4.18;;;1.10;;
45806;SDS011;31507;51.494;7.518;2022-09-09T14:33:25;6.38;;;1.27;;
45806;SDS011;31507;51.494;7.518;2022-09-09T14:35:57;6.72;;;0.98;;
45806;SDS011;31507;51.494;7.518;2022-09-09T14:38:24;2.42;;;1.00;;
45806;SDS011;31507;51.494;7.518;2022-09-09T14:40:50;5.53;;;1.40;;
45806;SDS011;31507;51.494;7.518;2022-09-09T14:43:15;3.22;;;1.45;;
45806;SDS011;31507;51.494;7.518;2022-09-09T14:45:41;3.33;;;1.17;;
45806;SDS011;31507;51.494;7.518;2022-09-09T14:48:08;2.95;;;1.00;;
45806;SDS011;31507;51.494;7.518;2022-09-09T14:50:33;4.72;;;1.05;;
45806;SDS011;31507;51.494;7.518;2022-09-09T14:53:03;4.90;;;1.33;;
45806;SDS011;31507;51.494;7.518;2022-09-09T14:55:29;5.25;;;1.23;;
45806;SDS011;31507;51.494;7.518;2022-09-09T14:57:56;4.43;;;1.10;;
45806;SDS011;31507;51.494;7.518;2022-09-09T15:00:22;3.80;;;1.00;;
45806;SDS011;31507;51.494;7.518;2022-09-09T15:02:51;4.07;;;1.08;;
45806;SDS011;31507;51.494;7.518;2022-09-09T15:05:20;2.85;;;1.20;;
45806;SDS011;31507;51.494;7.518;2022-09-09T15:07:46;3.10;;;1.27;;
45806;SDS011;31507;51.494;7.518;2022-09-09T15:10:13;3.80;;;0.90;;
45806;SDS011;31507;51.494;7.518;2022-09-09T15:12:39;6.18;;;1.00;;
45806;SDS011;31507;51.494;7.518;2022-09-09T15:15:06;3.20;;;0.90;;
45806;SDS011;31507;51.494;7.518;2022-09-09T15:17:33;3.50;;;1.15;;
45806;SDS011;31507;51.494;7.518;2022-09-09T15:20:00;4.28;;;1.30;;
45806;SDS011;31507;51.494;7.518;2022-09-09T15:22:26;4.97;;;1.67;;
45806;SDS011;31507;51.494;7.518;2022-09-09T15:24:51;5.63;;;1.20;;
45806;SDS011;31507;51.494;7.518;2022-09-09T15:27:17;3.50;;;1.33;;
45806;SDS011;31507;51.494;7.518;2022-09-09T15:29:43;4.03;;;0.85;;
45806;SDS011;31507;51.494;7.518;2022-09-09T15:32:09;2.63;;;0.90;;
45806;SDS011;31507;51.494;7.518;2022-09-09T15:34:35;2.53;;;1.20;;
45806;SDS011;31507;51.494;7.518;2022-09-09T15:37:00;2.63;;;0.75;;
45806;SDS011;31507;51.494;7.518;2022-09-09T15:39:26;4.80;;;0.90;;
45806;SDS011;31507;51.494;7.518;2022-09-09T15:41:53;4.93;;;1.20;;
45806;SDS011;31507;51.494;7.518;2022-09-09T15:44:18;3.38;;;1.23;;
45806;SDS011;31507;51.494;7.518;2022-09-09T15:46:45;3.47;;;0.95;;
45806;SDS011;31507;51.494;7.518;2022-09-09T15:51:44;3.40;;;1.23;;
45806;SDS011;31507;51.494;7.518;2022-09-09T15:54:14;6.30;;;1.20;;
45806;SDS011;31507;51.494;7.518;2022-09-09T15:56:45;4.35;;;0.98;;
45806;SDS011;31507;51.494;7.518;2022-09-09T15:59:13;4.05;;;0.82;;
45806;SDS011;31507;51.494;7.518;2022-09-09T16:01:39;5.93;;;1.10;;
45806;SDS011;31507;51.494;7.518;2022-09-09T16:04:08;3.40;;;1.00;;
45806;SDS011;31507;51.494;7.518;2022-09-09T16:06:34;4.35;;;1.00;;
45806;SDS011;31507;51.494;7.518;2022-09-09T16:09:01;4.18;;;1.02;;
45806;SDS011;31507;51.494;7.518;2022-09-09T16:11:34;3.72;;;1.15;;
45806;SDS011;31507;51.494;7.518;2022-09-09T16:14:03;6.40;;;1.23;;
45806;SDS011;31507;51.494;7.518;2022-09-09T16:16:30;5.03;;;1.10;;
45806;SDS011;31507;51.494;7.518;2022-09-09T16:18:57;3.13;;;1.20;;
45806;SDS011;31507;51.494;7.518;2022-09-09T16:21:25;6.63;;;1.20;;
45806;SDS011;31507;51.494;7.518;2022-09-09T16:23:54;4.28;;;1.40;;
45806;SDS011;31507;51.494;7.518;2022-09-09T16:26:21;8.07;;;1.38;;
45806;SDS011;31507;51.494;7.518;2022-09-09T16:28:47;4.47;;;1.50;;
45806;SDS011;31507;51.494;7.518;2022-09-09T16:31:18;4.80;;;1.83;;
45806;SDS011;31507;51.494;7.518;2022-09-09T16:33:45;5.97;;;1.60;;
45806;SDS011;31507;51.494;7.518;2022-09-09T16:36:12;8.82;;;1.77;;
45806;SDS011;31507;51.494;7.518;2022-09-09T16:38:41;2.97;;;1.58;;
45806;SDS011;31507;51.494;7.518;2022-09-09T16:41:09;4.68;;;1.52;;
45806;SDS011;31507;51.494;7.518;2022-09-09T16:43:36;3.58;;;1.30;;
45806;SDS011;31507;51.494;7.518;2022-09-09T16:46:03;3.47;;;1.95;;
45806;SDS011;31507;51.494;7.518;2022-09-09T16:48:40;4.88;;;1.58;;
45806;SDS011;31507;51.494;7.518;2022-09-09T16:51:08;4.35;;;1.48;;
45806;SDS011;31507;51.494;7.518;2022-09-09T16:53:37;4.32;;;1.35;;
45806;SDS011;31507;51.494;7.518;2022-09-09T16:56:06;5.53;;;1.60;;
45806;SDS011;31507;51.494;7.518;2022-09-09T16:58:33;3.65;;;1.27;;
45806;SDS011;31507;51.494;7.518;2022-09-09T17:00:59;7.53;;;1.42;;
45806;SDS011;31507;51.494;7.518;2022-09-09T17:03:26;2.47;;;1.15;;
45806;SDS011;31507;51.494;7.518;2022-09-09T17:05:52;2.65;;;1.38;;
45806;SDS011;31507;51.494;7.518;2022-09-09T17:08:18;2.88;;;1.40;;
45806;SDS011;31507;51.494;7.518;2022-09-09T17:10:43;9.02;;;1.83;;
45806;SDS011;31507;51.494;7.518;2022-09-09T17:13:10;4.40;;;1.70;;
45806;SDS011;31507;51.494;7.518;2022-09-09T17:15:40;3.97;;;2.13;;
45806;SDS011;31507;51.494;7.518;2022-09-09T17:18:10;6.35;;;2.13;;
45806;SDS011;31507;51.494;7.518;2022-09-09T17:20:37;7.35;;;2.78;;
45806;SDS011;31507;51.494;7.518;2022-09-09T17:23:04;9.25;;;2.63;;
45806;SDS011;31507;51.494;7.518;2022-09-09T17:25:30;11.50;;;2.80;;
45806;SDS011;31507;51.494;7.518;2022-09-09T17:27:56;8.90;;;2.70;;
45806;SDS011;31507;51.494;7.518;2022-09-09T17:30:23;8.73;;;2.63;;
45806;SDS011;31507;51.494;7.518;2022-09-09T17:32:48;5.63;;;2.40;;
45806;SDS011;31507;51.494;7.518;2022-09-09T17:35:14;8.52;;;2.80;;
45806;SDS011;31507;51.494;7.518;2022-09-09T17:37:40;5.40;;;2.33;;
45806;SDS011;31507;51.494;7.518;2022-09-09T17:40:06;6.85;;;2.88;;
45806;SDS011;31507;51.494;7.518;2022-09-09T17:42:33;7.88;;;2.88;;
45806;SDS011;31507;51.494;7.518;2022-09-09T17:45:00;9.00;;;2.80;;
45806;SDS011;31507;51.494;7.518;2022-09-09T17:47:26;7.95;;;2.85;;
45806;SDS011;31507;51.494;7.518;2022-09-09T17:49:53;15.00;;;3.20;;
45806;SDS011;31507;51.494;7.518;2022-09-09T17:52:19;13.82;;;3.17;;
45806;SDS011;31507;51.494;7.518;2022-09-09T17:54:46;7.38;;;3.30;;
45806;SDS011;31507;51.494;7.518;2022-09-09T17:57:11;8.00;;;3.05;;